createdAt,value
2022-09-20T00:01:28.302Z,100206.63
2022-09-20T00:03:58.742Z,100202.16
2022-09-20T00:06:28.545Z,100209.75
2022-09-20T00:08:57.804Z,100206.41
2022-09-20T00:11:28.661Z,100210.09
2022-09-20T00:13:58.599Z,100210.03
2022-09-20T00:16:31.309Z,100202.81
2022-09-20T00:19:00.905Z,100200.50
2022-09-20T00:21:31.166Z,100199.53
2022-09-20T00:23:59.580Z,100190.69
2022-09-20T00:26:29.020Z,100190.84
2022-09-20T00:28:59.017Z,100190.19
2022-09-20T00:31:28.970Z,100182.41
2022-09-20T00:34:15.131Z,100182.72
2022-09-20T00:36:43.730Z,100177.69
2022-09-20T00:39:14.184Z,100176.31
2022-09-20T00:41:42.667Z,100168.16
2022-09-20T00:44:53.588Z,100164.34
2022-09-20T00:47:33.341Z,100169.19
2022-09-20T00:50:08.871Z,100164.72
2022-09-20T00:52:37.968Z,100152.03
2022-09-20T00:55:09.884Z,100146.75
2022-09-20T00:57:39.627Z,100141.59
2022-09-20T01:00:11.587Z,100144.72
2022-09-20T01:02:44.323Z,100133.09
2022-09-20T01:05:15.699Z,100121.34
2022-09-20T01:07:45.423Z,100130.84
2022-09-20T01:10:13.576Z,100134.28
2022-09-20T01:12:44.411Z,100132.31
2022-09-20T01:15:14.449Z,100130.06
2022-09-20T01:17:48.473Z,100127.19
2022-09-20T01:20:22.589Z,100136.81
2022-09-20T01:23:21.767Z,100139.22
2022-09-20T01:26:15.229Z,100148.19
2022-09-20T01:28:47.734Z,100153.44
2022-09-20T01:31:21.616Z,100150.06
2022-09-20T01:33:54.428Z,100147.88
2022-09-20T01:36:27.033Z,100157.84
2022-09-20T01:39:07.120Z,100161.88
2022-09-20T01:41:38.607Z,100165.47
2022-09-20T01:44:14.200Z,100161.31
2022-09-20T01:46:44.335Z,100164.94
2022-09-20T01:49:28.775Z,100161.09
2022-09-20T01:52:28.864Z,100151.38
2022-09-20T01:55:47.646Z,100165.28
2022-09-20T01:58:48.104Z,100152.41
2022-09-20T02:01:46.457Z,100140.34
2022-09-20T02:04:44.413Z,100141.25
2022-09-20T02:07:39.143Z,100157.25
2022-09-20T02:10:35.652Z,100151.22
2022-09-20T02:13:08.193Z,100157.91
2022-09-20T02:16:06.126Z,100154.91
2022-09-20T02:18:49.548Z,100148.47
2022-09-20T02:21:30.852Z,100162.59
2022-09-20T02:24:10.994Z,100154.50
2022-09-20T02:26:48.446Z,100171.69
2022-09-20T02:29:27.311Z,100170.91
2022-09-20T02:32:13.436Z,100165.81
2022-09-20T02:34:59.453Z,100177.09
2022-09-20T02:37:51.499Z,100169.59
2022-09-20T02:40:33.464Z,100190.28
2022-09-20T02:43:10.205Z,100184.00
2022-09-20T02:45:45.731Z,100184.72
2022-09-20T02:48:17.853Z,100187.72
2022-09-20T02:50:56.073Z,100189.03
2022-09-20T02:53:36.573Z,100201.84
2022-09-20T02:56:14.981Z,100199.13
2022-09-20T02:58:54.761Z,100207.94
2022-09-20T03:01:42.426Z,100199.25
2022-09-20T03:04:25.101Z,100192.44
2022-09-20T03:07:02.875Z,100203.38
2022-09-20T03:09:36.282Z,100205.41
2022-09-20T03:12:15.856Z,100209.09
2022-09-20T03:14:51.631Z,100206.66
2022-09-20T03:17:26.586Z,100213.00
2022-09-20T03:20:08.107Z,100212.38
2022-09-20T03:22:50.996Z,100217.31
2022-09-20T03:25:43.762Z,100213.22
2022-09-20T03:28:35.605Z,100216.69
2022-09-20T03:31:17.065Z,100220.19
2022-09-20T03:33:53.549Z,100222.75
2022-09-20T03:36:40.833Z,100227.34
2022-09-20T03:39:39.499Z,100229.28
2022-09-20T03:42:16.593Z,100231.19
2022-09-20T03:45:16.143Z,100230.88
2022-09-20T03:48:16.950Z,100233.09
2022-09-20T03:50:56.472Z,100225.81
2022-09-20T03:53:42.499Z,100230.25
2022-09-20T03:56:45.679Z,100245.63
2022-09-20T03:59:33.366Z,100249.13
2022-09-20T04:02:32.747Z,100248.78
2022-09-20T04:05:05.153Z,100245.91
2022-09-20T04:07:49.081Z,100251.13
2022-09-20T04:10:37.800Z,100246.53
2022-09-20T04:13:18.866Z,100246.06
2022-09-20T04:16:07.043Z,100242.88
2022-09-20T04:18:42.475Z,100254.50
2022-09-20T04:21:23.839Z,100248.31
2022-09-20T04:24:01.016Z,100247.97
2022-09-20T04:26:31.555Z,100252.88
2022-09-20T04:29:14.466Z,100259.81
2022-09-20T04:31:54.103Z,100265.53
2022-09-20T04:34:49.678Z,100264.72
2022-09-20T04:37:26.348Z,100266.34
2022-09-20T04:40:04.468Z,100262.56
2022-09-20T04:43:25.546Z,100258.91
2022-09-20T04:46:31.791Z,100263.19
2022-09-20T04:49:40.699Z,100266.66
2022-09-20T04:52:50.433Z,100271.41
2022-09-20T04:55:53.748Z,100268.41
2022-09-20T04:59:05.950Z,100275.69
2022-09-20T05:02:06.937Z,100282.78
2022-09-20T05:05:10.421Z,100277.72
2022-09-20T05:08:14.352Z,100276.31
2022-09-20T05:11:19.636Z,100289.09
2022-09-20T05:14:07.692Z,100272.81
2022-09-20T05:16:58.255Z,100275.97
2022-09-20T05:19:34.428Z,100273.94
2022-09-20T05:22:27.969Z,100274.09
2022-09-20T05:25:10.298Z,100275.34
2022-09-20T05:27:46.714Z,100267.75
2022-09-20T05:30:24.313Z,100274.00
2022-09-20T05:33:02.305Z,100282.94
2022-09-20T05:35:38.301Z,100286.59
2022-09-20T05:38:15.021Z,100281.72
2022-09-20T05:41:04.721Z,100290.09
2022-09-20T05:43:36.352Z,100295.47
2022-09-20T05:46:17.826Z,100304.22
2022-09-20T05:49:04.198Z,100306.38
2022-09-20T05:51:44.012Z,100306.53
2022-09-20T05:54:54.830Z,100298.31
2022-09-20T05:57:45.685Z,100293.81
2022-09-20T06:00:18.043Z,100285.09
2022-09-20T06:02:54.662Z,100289.63
2022-09-20T06:05:34.947Z,100291.34
2022-09-20T06:08:17.790Z,100298.84
2022-09-20T06:11:12.581Z,100321.88
2022-09-20T06:14:01.189Z,100311.13
2022-09-20T06:16:36.572Z,100320.28
2022-09-20T06:19:17.339Z,100316.03
2022-09-20T06:21:52.621Z,100309.19
2022-09-20T06:24:38.289Z,100321.94
2022-09-20T06:27:12.054Z,100339.56
2022-09-20T06:29:46.018Z,100329.03
2022-09-20T06:32:18.798Z,100329.34
2022-09-20T06:34:49.876Z,100326.91
2022-09-20T06:37:56.243Z,100328.63
2022-09-20T06:40:53.011Z,100331.53
2022-09-20T06:43:21.168Z,100332.53
2022-09-20T06:45:49.323Z,100328.47
2022-09-20T06:48:19.348Z,100338.66
2022-09-20T06:50:48.870Z,100336.44
2022-09-20T06:53:19.275Z,100338.41
2022-09-20T06:55:48.330Z,100343.38
2022-09-20T06:58:16.424Z,100344.41
2022-09-20T07:00:44.754Z,100354.63
2022-09-20T07:03:13.697Z,100358.75
2022-09-20T07:05:41.933Z,100358.97
2022-09-20T07:08:12.100Z,100365.28
2022-09-20T07:10:40.493Z,100376.72
2022-09-20T07:13:08.546Z,100375.69
2022-09-20T07:15:37.117Z,100376.91
2022-09-20T07:18:05.358Z,100372.44
2022-09-20T07:20:34.105Z,100387.69
2022-09-20T07:23:02.623Z,100371.44
2022-09-20T07:25:32.785Z,100377.06
2022-09-20T07:28:00.929Z,100380.09
2022-09-20T07:30:29.359Z,100382.75
2022-09-20T07:32:57.521Z,100374.09
2022-09-20T07:35:25.741Z,100377.25
2022-09-20T07:37:58.482Z,100369.22
2022-09-20T07:40:27.480Z,100375.88
2022-09-20T07:42:59.125Z,100377.78
2022-09-20T07:45:27.441Z,100360.16
2022-09-20T07:47:55.705Z,100364.69
2022-09-20T07:50:23.862Z,100368.16
2022-09-20T07:52:52.053Z,100376.72
2022-09-20T07:55:20.300Z,100375.94
2022-09-20T07:57:48.356Z,100365.13
2022-09-20T08:00:18.694Z,100379.72
2022-09-20T08:02:46.790Z,100377.06
2022-09-20T08:05:15.207Z,100384.47
2022-09-20T08:07:43.421Z,100387.47
2022-09-20T08:10:12.146Z,100377.94
2022-09-20T08:15:31.142Z,100389.56
2022-09-20T08:17:59.300Z,100376.03
2022-09-20T08:20:27.527Z,100370.91
2022-09-20T08:23:19.319Z,100367.72
2022-09-20T08:25:44.231Z,100377.69
2022-09-20T08:28:12.357Z,100360.59
2022-09-20T08:30:41.930Z,100363.56
2022-09-20T08:33:11.602Z,100363.56
2022-09-20T08:35:39.768Z,100357.16
2022-09-20T08:40:59.381Z,100356.19
2022-09-20T08:43:31.049Z,100360.84
2022-09-20T08:46:06.908Z,100361.03
2022-09-20T08:48:35.546Z,100367.75
2022-09-20T08:51:06.053Z,100374.91
2022-09-20T08:53:35.195Z,100371.59
2022-09-20T08:56:04.836Z,100360.72
2022-09-20T08:58:33.210Z,100356.38
2022-09-20T09:01:03.032Z,100350.19
2022-09-20T09:03:31.107Z,100359.94
2022-09-20T09:05:59.494Z,100344.59
2022-09-20T09:08:31.117Z,100353.81
2022-09-20T09:11:08.571Z,100360.66
2022-09-20T09:13:45.672Z,100360.56
2022-09-20T09:16:23.174Z,100348.09
2022-09-20T09:18:55.821Z,100337.56
2022-09-20T09:21:27.020Z,100324.53
2022-09-20T09:24:02.906Z,100325.91
2022-09-20T09:27:25.859Z,100327.34
2022-09-20T09:29:55.803Z,100325.44
2022-09-20T09:32:29.134Z,100320.78
2022-09-20T09:34:58.062Z,100329.25
2022-09-20T09:37:29.143Z,100334.56
2022-09-20T09:40:16.562Z,100327.97
2022-09-20T09:42:53.122Z,100342.53
2022-09-20T09:45:36.226Z,100340.13
2022-09-20T09:48:21.969Z,100337.78
2022-09-20T09:50:50.385Z,100332.69
2022-09-20T09:53:23.244Z,100347.16
2022-09-20T09:56:25.642Z,100346.69
2022-09-20T09:59:15.220Z,100337.91
2022-09-20T10:01:53.550Z,100330.59
2022-09-20T10:04:31.679Z,100328.03
2022-09-20T10:07:07.495Z,100339.38
2022-09-20T10:09:53.380Z,100338.66
2022-09-20T10:12:35.725Z,100329.94
2022-09-20T10:15:21.386Z,100329.88
2022-09-20T10:17:58.083Z,100326.94
2022-09-20T10:21:00.540Z,100331.59
2022-09-20T10:24:02.457Z,100320.31
2022-09-20T10:26:49.061Z,100333.25
2022-09-20T10:29:30.302Z,100324.03
2022-09-20T10:32:11.372Z,100324.88
2022-09-20T10:35:23.637Z,100316.09
2022-09-20T10:38:12.687Z,100316.66
2022-09-20T10:41:08.261Z,100322.81
2022-09-20T10:43:54.586Z,100313.75
2022-09-20T10:46:35.253Z,100319.03
2022-09-20T10:49:28.273Z,100307.13
2022-09-20T10:52:08.541Z,100310.91
2022-09-20T10:54:52.671Z,100314.03
2022-09-20T10:57:49.981Z,100312.75
2022-09-20T11:00:24.830Z,100312.44
2022-09-20T11:03:12.820Z,100309.72
2022-09-20T11:05:53.745Z,100307.19
2022-09-20T11:08:27.504Z,100314.53
2022-09-20T11:11:03.013Z,100319.56
2022-09-20T11:13:38.648Z,100296.59
2022-09-20T11:16:12.805Z,100308.09
2022-09-20T11:18:48.052Z,100308.88
2022-09-20T11:21:24.406Z,100299.88
2022-09-20T11:23:58.648Z,100298.09
2022-09-20T11:26:34.080Z,100303.44
2022-09-20T11:29:09.241Z,100291.00
2022-09-20T11:31:42.307Z,100295.84
2022-09-20T11:34:18.806Z,100295.16
2022-09-20T11:36:54.020Z,100282.53
2022-09-20T11:39:29.241Z,100281.75
2022-09-20T11:42:02.204Z,100286.59
2022-09-20T11:44:31.130Z,100296.31
2022-09-20T11:47:03.999Z,100278.13
2022-09-20T11:49:44.297Z,100282.13
2022-09-20T11:52:35.479Z,100287.69
2022-09-20T11:55:28.160Z,100287.72
2022-09-20T11:58:09.321Z,100290.66
2022-09-20T12:00:41.458Z,100288.03
2022-09-20T12:03:23.428Z,100293.34
2022-09-20T12:05:58.254Z,100283.44
2022-09-20T12:08:30.736Z,100281.28
2022-09-20T12:11:01.877Z,100282.22
2022-09-20T12:13:53.657Z,100275.91
2022-09-20T12:16:40.487Z,100281.59
2022-09-20T12:19:11.695Z,100278.88
2022-09-20T12:22:27.055Z,100285.56
2022-09-20T12:25:28.560Z,100289.38
2022-09-20T12:27:58.391Z,100275.03
2022-09-20T12:30:30.259Z,100286.88
2022-09-20T12:33:01.151Z,100282.53
2022-09-20T12:36:15.807Z,100291.34
2022-09-20T12:38:58.330Z,100294.03
2022-09-20T12:41:28.946Z,100290.91
2022-09-20T12:44:03.895Z,100296.13
2022-09-20T12:46:42.284Z,100290.34
2022-09-20T12:49:49.756Z,100289.06
2022-09-20T12:52:57.235Z,100285.16
2022-09-20T12:55:38.587Z,100287.28
2022-09-20T12:58:18.645Z,100288.84
2022-09-20T13:00:49.744Z,100280.03
2022-09-20T13:03:29.658Z,100280.47
2022-09-20T13:06:24.298Z,100274.81
2022-09-20T13:08:59.266Z,100287.78
2022-09-20T13:11:35.430Z,100289.34
2022-09-20T13:14:08.246Z,100287.19
2022-09-20T13:16:51.578Z,100288.66
2022-09-20T13:19:26.026Z,100285.66
2022-09-20T13:21:59.534Z,100284.97
2022-09-20T13:24:31.555Z,100284.44
2022-09-20T13:27:10.698Z,100285.97
2022-09-20T13:29:41.201Z,100296.91
2022-09-20T13:32:19.590Z,100292.09
2022-09-20T13:35:07.593Z,100292.97
2022-09-20T13:37:36.982Z,100287.47
2022-09-20T13:40:06.897Z,100289.00
2022-09-20T13:42:36.748Z,100295.75
2022-09-20T13:45:13.969Z,100294.03
2022-09-20T13:47:44.634Z,100292.88
2022-09-20T13:50:22.095Z,100296.47
2022-09-20T13:52:52.786Z,100304.25
2022-09-20T13:55:25.111Z,100295.34
2022-09-20T13:57:54.492Z,100299.63
2022-09-20T14:00:22.852Z,100299.53
2022-09-20T14:02:51.388Z,100297.03
2022-09-20T14:05:21.953Z,100307.25
2022-09-20T14:07:51.260Z,100308.94
2022-09-20T14:10:35.035Z,100300.28
2022-09-20T14:13:07.042Z,100302.44
2022-09-20T14:15:38.892Z,100316.03
2022-09-20T14:18:10.831Z,100303.75
2022-09-20T14:20:43.543Z,100305.06
2022-09-20T14:23:23.236Z,100312.22
2022-09-20T14:26:27.014Z,100308.06
2022-09-20T14:28:56.026Z,100301.38
2022-09-20T14:31:27.054Z,100310.50
2022-09-20T14:33:57.897Z,100313.06
2022-09-20T14:36:28.958Z,100314.16
2022-09-20T14:39:00.390Z,100308.34
2022-09-20T14:41:34.496Z,100313.09
2022-09-20T14:44:03.811Z,100318.03
2022-09-20T14:46:35.585Z,100313.69
2022-09-20T14:49:23.188Z,100319.06
2022-09-20T14:51:53.262Z,100320.78
2022-09-20T14:54:28.033Z,100330.69
2022-09-20T14:56:57.673Z,100331.44
2022-09-20T14:59:27.998Z,100332.88
2022-09-20T15:02:00.368Z,100334.03
2022-09-20T15:04:29.399Z,100332.34
2022-09-20T15:07:02.676Z,100331.88
2022-09-20T15:09:31.217Z,100342.28
2022-09-20T15:12:07.207Z,100340.28
2022-09-20T15:14:37.803Z,100332.56
2022-09-20T15:17:06.682Z,100338.88
2022-09-20T15:19:34.975Z,100331.16
2022-09-20T15:22:04.661Z,100340.72
2022-09-20T15:24:33.758Z,100336.47
2022-09-20T15:27:01.886Z,100341.34
2022-09-20T15:29:30.033Z,100343.94
2022-09-20T15:31:58.353Z,100348.94
2022-09-20T15:34:26.492Z,100349.16
2022-09-20T15:36:55.665Z,100351.31
2022-09-20T15:39:25.571Z,100364.88
2022-09-20T15:41:54.410Z,100361.44
2022-09-20T15:44:22.549Z,100357.28
2022-09-20T15:46:51.672Z,100355.94
2022-09-20T15:49:20.876Z,100353.06
2022-09-20T15:51:49.220Z,100358.09
2022-09-20T15:54:18.056Z,100355.72
2022-09-20T15:56:47.636Z,100359.31
2022-09-20T15:59:16.491Z,100365.19
2022-09-20T16:01:48.176Z,100362.13
2022-09-20T16:04:18.758Z,100366.16
2022-09-20T16:06:49.621Z,100364.59
2022-09-20T16:09:18.353Z,100367.66
2022-09-20T16:11:48.473Z,100366.53
2022-09-20T16:14:16.616Z,100364.69
2022-09-20T16:16:44.762Z,100374.53
2022-09-20T16:19:18.026Z,100373.94
2022-09-20T16:21:53.736Z,100379.06
2022-09-20T16:24:26.130Z,100377.91
2022-09-20T16:26:55.856Z,100373.34
2022-09-20T16:29:25.742Z,100377.34
2022-09-20T16:31:55.344Z,100379.31
2022-09-20T16:34:29.771Z,100378.88
2022-09-20T16:36:59.850Z,100383.25
2022-09-20T16:39:29.531Z,100385.47
2022-09-20T16:42:05.065Z,100385.38
2022-09-20T16:44:34.517Z,100384.38
2022-09-20T16:47:02.672Z,100388.66
2022-09-20T16:49:30.966Z,100390.94
2022-09-20T16:51:59.034Z,100395.13
2022-09-20T16:54:31.632Z,100393.31
2022-09-20T16:57:01.937Z,100398.59
2022-09-20T16:59:30.273Z,100395.34
2022-09-20T17:01:58.500Z,100399.06
2022-09-20T17:04:26.683Z,100396.78
2022-09-20T17:06:54.806Z,100402.78
2022-09-20T17:09:23.014Z,100403.44
2022-09-20T17:11:52.100Z,100406.81
2022-09-20T17:14:22.260Z,100407.72
2022-09-20T17:16:51.074Z,100410.44
2022-09-20T17:19:22.887Z,100417.84
2022-09-20T17:21:51.813Z,100416.25
2022-09-20T17:24:21.370Z,100420.97
2022-09-20T17:26:50.889Z,100422.69
2022-09-20T17:29:21.662Z,100415.94
2022-09-20T17:31:55.187Z,100411.44
2022-09-20T17:34:25.456Z,100420.34
2022-09-20T17:36:54.230Z,100422.34
2022-09-20T17:39:22.486Z,100423.88
2022-09-20T17:41:51.030Z,100425.56
2022-09-20T17:44:19.150Z,100436.22
2022-09-20T17:46:50.728Z,100435.19
2022-09-20T17:49:20.798Z,100435.19
2022-09-20T17:51:50.295Z,100437.34
2022-09-20T17:54:19.272Z,100437.34
2022-09-20T17:56:48.831Z,100440.63
2022-09-20T17:59:18.002Z,100437.56
2022-09-20T18:01:49.424Z,100442.81
2022-09-20T18:04:17.762Z,100447.75
2022-09-20T18:06:48.265Z,100448.75
2022-09-20T18:09:18.028Z,100459.06
2022-09-20T18:11:49.615Z,100451.13
2022-09-20T18:14:19.366Z,100455.97
2022-09-20T18:16:49.106Z,100461.56
2022-09-20T18:19:17.246Z,100464.31
2022-09-20T18:21:45.565Z,100461.63
2022-09-20T18:24:13.927Z,100459.72
2022-09-20T18:26:42.624Z,100463.06
2022-09-20T18:29:12.385Z,100461.69
2022-09-20T18:31:43.404Z,100465.34
2022-09-20T18:34:15.688Z,100471.66
2022-09-20T18:36:43.893Z,100474.78
2022-09-20T18:39:13.207Z,100471.00
2022-09-20T18:41:44.132Z,100464.03
2022-09-20T18:44:13.843Z,100468.22
2022-09-20T18:46:42.153Z,100475.31
2022-09-20T18:49:15.172Z,100471.84
2022-09-20T18:51:43.845Z,100475.69
2022-09-20T18:54:13.420Z,100476.00
2022-09-20T18:56:43.106Z,100467.16
2022-09-20T18:59:16.385Z,100473.31
2022-09-20T19:02:07.971Z,100478.06
2022-09-20T19:04:50.518Z,100479.63
2022-09-20T19:07:26.876Z,100480.56
2022-09-20T19:10:04.791Z,100469.16
2022-09-20T19:12:39.746Z,100468.66
2022-09-20T19:15:23.806Z,100477.06
2022-09-20T19:18:18.401Z,100478.38
2022-09-20T19:20:59.361Z,100480.13
2022-09-20T19:23:46.682Z,100491.09
2022-09-20T19:26:22.230Z,100483.03
2022-09-20T19:28:51.824Z,100475.47
2022-09-20T19:31:25.781Z,100471.19
2022-09-20T19:33:56.080Z,100477.72
2022-09-20T19:36:32.848Z,100476.75
2022-09-20T19:39:08.036Z,100474.72
2022-09-20T19:41:47.610Z,100473.44
2022-09-20T19:44:29.780Z,100475.78
2022-09-20T19:47:22.629Z,100474.50
2022-09-20T19:49:55.514Z,100476.13
2022-09-20T19:52:25.929Z,100485.63
2022-09-20T19:54:54.782Z,100479.78
2022-09-20T19:57:25.019Z,100481.84
2022-09-20T19:59:53.841Z,100486.78
2022-09-20T20:02:22.115Z,100486.19
2022-09-20T20:04:52.870Z,100497.44
2022-09-20T20:07:30.923Z,100484.88
2022-09-20T20:10:11.039Z,100492.94
2022-09-20T20:12:58.103Z,100492.44
2022-09-20T20:15:40.486Z,100484.19
2022-09-20T20:18:22.050Z,100491.97
2022-09-20T20:20:52.571Z,100491.19
2022-09-20T20:23:49.935Z,100486.91
2022-09-20T20:26:21.870Z,100486.91
2022-09-20T20:28:50.912Z,100479.28
2022-09-20T20:31:19.749Z,100482.78
2022-09-20T20:33:48.053Z,100479.59
2022-09-20T20:36:18.261Z,100482.47
2022-09-20T20:38:50.031Z,100483.66
2022-09-20T20:41:21.395Z,100483.81
2022-09-20T20:43:53.644Z,100492.69
2022-09-20T20:46:21.778Z,100489.38
2022-09-20T20:48:49.912Z,100501.88
2022-09-20T20:51:19.549Z,100493.13
2022-09-20T20:53:50.865Z,100496.81
2022-09-20T20:56:21.311Z,100498.69
2022-09-20T20:58:50.374Z,100497.75
2022-09-20T21:01:20.475Z,100501.69
2022-09-20T21:03:50.578Z,100507.72
2022-09-20T21:06:19.487Z,100511.22
2022-09-20T21:08:50.118Z,100509.94
2022-09-20T21:11:20.472Z,100506.94
2022-09-20T21:13:49.062Z,100506.59
2022-09-20T21:16:19.076Z,100504.75
2022-09-20T21:18:48.941Z,100502.22
2022-09-20T21:21:19.167Z,100518.38
2022-09-20T21:23:50.848Z,100508.91
2022-09-20T21:26:20.057Z,100510.19
2022-09-20T21:28:52.147Z,100507.81
2022-09-20T21:31:21.600Z,100508.00
2022-09-20T21:33:49.795Z,100512.44
2022-09-20T21:36:19.248Z,100510.69
2022-09-20T21:38:48.736Z,100512.75
2022-09-20T21:41:18.354Z,100506.25
2022-09-20T21:43:49.024Z,100505.63
2022-09-20T21:46:19.045Z,100499.28
2022-09-20T21:48:48.146Z,100507.69
2022-09-20T21:51:18.291Z,100499.75
2022-09-20T21:53:48.622Z,100499.09
2022-09-20T21:56:18.650Z,100493.56
2022-09-20T21:58:47.128Z,100499.09
2022-09-20T22:01:17.030Z,100498.84
2022-09-20T22:03:47.727Z,100496.47
2022-09-20T22:06:17.439Z,100499.78
2022-09-20T22:08:50.183Z,100500.88
2022-09-20T22:11:19.628Z,100502.63
2022-09-20T22:13:49.239Z,100505.78
2022-09-20T22:16:19.776Z,100504.50
2022-09-20T22:18:48.474Z,100508.31
2022-09-20T22:21:19.761Z,100504.97
2022-09-20T22:23:52.918Z,100506.81
2022-09-20T22:26:22.709Z,100506.00
2022-09-20T22:28:51.036Z,100503.47
2022-09-20T22:31:21.626Z,100499.00
2022-09-20T22:33:52.869Z,100495.84
2022-09-20T22:36:22.882Z,100494.13
2022-09-20T22:38:53.925Z,100489.50
2022-09-20T22:41:22.477Z,100491.28
2022-09-20T22:43:51.408Z,100495.69
2022-09-20T22:46:21.339Z,100491.28
2022-09-20T22:48:50.518Z,100475.59
2022-09-20T22:51:21.696Z,100482.25
2022-09-20T22:53:51.163Z,100480.03
2022-09-20T22:56:22.295Z,100483.34
2022-09-20T22:58:53.106Z,100477.31
2022-09-20T23:01:23.695Z,100478.56
2022-09-20T23:03:56.415Z,100468.25
2022-09-20T23:06:26.789Z,100474.75
2022-09-20T23:08:57.337Z,100465.44
2022-09-20T23:11:27.727Z,100470.81
2022-09-20T23:13:57.339Z,100466.34
2022-09-20T23:16:28.293Z,100466.34
2022-09-20T23:18:57.496Z,100468.38
2022-09-20T23:21:26.073Z,100465.03
2022-09-20T23:23:55.481Z,100471.06
2022-09-20T23:26:25.439Z,100466.81
2022-09-20T23:28:57.599Z,100462.25
2022-09-20T23:31:26.335Z,100468.91
2022-09-20T23:33:55.845Z,100469.13
2022-09-20T23:36:25.167Z,100468.69
2022-09-20T23:38:53.757Z,100468.19
2022-09-20T23:41:23.910Z,100457.28
2022-09-20T23:43:52.469Z,100457.94
2022-09-20T23:46:24.182Z,100456.56
2022-09-20T23:48:52.661Z,100446.09
2022-09-20T23:51:22.988Z,100441.81
2022-09-20T23:53:51.540Z,100447.84
2022-09-20T23:56:19.840Z,100443.13
2022-09-20T23:58:48.734Z,100444.41
